Terminal Aerodrome Forecast
Issued by NWS

Home | Current Version | Previous Version | Graphics & Text | Print | Product List | Glossary On
Versions: 1 2 3 4 5 6 7 8 9 10 11 12 13 14
000
FTUS43 KGRB 021124
TAFATW
TAF
KATW 021124Z 0212/0312 35006KT P6SM SKC
     FM021800 03007KT P6SM SCT060
      TEMPO 0222/0302 BKN060
     FM030200 19003KT P6SM SCT070=

USA.gov is the U.S. government's official web portal to all federal, state and local government web resources and services.